sensor_id;sensor_type;location;lat;lon;timestamp;pressure;altitude;pressure_sealevel;temperature;humidity
27643;BME280;15053;48.618;10.024;2023-04-01T00:01:08;92989.09;;;7.65;87.24
27643;BME280;15053;48.618;10.024;2023-04-01T00:03:34;92990.94;;;7.65;87.46
27643;BME280;15053;48.618;10.024;2023-04-01T00:06:01;92987.38;;;7.61;87.33
27643;BME280;15053;48.618;10.024;2023-04-01T00:08:29;92990.94;;;7.65;87.46
27643;BME280;15053;48.618;10.024;2023-04-01T00:10:56;92984.19;;;7.64;88.12
27643;BME280;15053;48.618;10.024;2023-04-01T00:13:25;92984.19;;;7.64;88.59
27643;BME280;15053;48.618;10.024;2023-04-01T00:15:54;92985.75;;;7.65;88.56
27643;BME280;15053;48.618;10.024;2023-04-01T00:18:22;92972.47;;;7.66;87.69
27643;BME280;15053;48.618;10.024;2023-04-01T00:20:49;92983.59;;;7.67;88.60
27643;BME280;15053;48.618;10.024;2023-04-01T00:23:18;92985.59;;;7.70;88.00
27643;BME280;15053;48.618;10.024;2023-04-01T00:25:45;92990.59;;;7.66;88.41
27643;BME280;15053;48.618;10.024;2023-04-01T00:28:17;92985.16;;;7.68;88.17
27643;BME280;15053;48.618;10.024;2023-04-01T00:30:44;92990.94;;;7.65;88.55
27643;BME280;15053;48.618;10.024;2023-04-01T00:33:11;92979.19;;;7.67;89.08
27643;BME280;15053;48.618;10.024;2023-04-01T00:35:38;92979.66;;;7.69;88.40
27643;BME280;15053;48.618;10.024;2023-04-01T00:38:04;92984.56;;;7.71;88.15
27643;BME280;15053;48.618;10.024;2023-04-01T00:40:38;92985.31;;;7.71;88.24
27643;BME280;15053;48.618;10.024;2023-04-01T00:43:11;92976.31;;;7.69;88.70
27643;BME280;15053;48.618;10.024;2023-04-01T00:45:41;92980.41;;;7.70;88.68
27643;BME280;15053;48.618;10.024;2023-04-01T00:50:42;92983.00;;;7.70;89.12
27643;BME280;15053;48.618;10.024;2023-04-01T00:53:10;92976.31;;;7.69;89.08
27643;BME280;15053;48.618;10.024;2023-04-01T00:55:42;92976.16;;;7.65;89.42
27643;BME280;15053;48.618;10.024;2023-04-01T00:58:14;92969.16;;;7.66;89.86
27643;BME280;15053;48.618;10.024;2023-04-01T01:00:42;92961.97;;;7.63;88.78
27643;BME280;15053;48.618;10.024;2023-04-01T01:03:09;92949.28;;;7.61;88.94
27643;BME280;15053;48.618;10.024;2023-04-01T01:06:04;92953.72;;;7.61;89.73
27643;BME280;15053;48.618;10.024;2023-04-01T01:09:03;92956.44;;;7.56;89.53
27643;BME280;15053;48.618;10.024;2023-04-01T01:11:50;92957.53;;;7.55;89.06
27643;BME280;15053;48.618;10.024;2023-04-01T01:14:55;92963.75;;;7.54;88.24
27643;BME280;15053;48.618;10.024;2023-04-01T01:20:27;92962.53;;;7.51;88.50
27643;BME280;15053;48.618;10.024;2023-04-01T01:31:10;92956.44;;;7.56;88.36
27643;BME280;15053;48.618;10.024;2023-04-01T01:36:15;92968.34;;;7.57;88.61
27643;BME280;15053;48.618;10.024;2023-04-01T01:38:43;92954.94;;;7.55;88.81
27643;BME280;15053;48.618;10.024;2023-04-01T01:41:12;92952.34;;;7.55;88.98
27643;BME280;15053;48.618;10.024;2023-04-01T01:43:44;92960.72;;;7.52;89.66
27643;BME280;15053;48.618;10.024;2023-04-01T01:46:19;92948.03;;;7.50;89.80
27643;BME280;15053;48.618;10.024;2023-04-01T01:48:47;92947.56;;;7.48;89.27
27643;BME280;15053;48.618;10.024;2023-04-01T01:51:14;92940.13;;;7.47;89.02
27643;BME280;15053;48.618;10.024;2023-04-01T01:53:41;92941.16;;;7.46;89.66
27643;BME280;15053;48.618;10.024;2023-04-01T01:56:10;92945.59;;;7.45;89.77
27643;BME280;15053;48.618;10.024;2023-04-01T01:58:44;92949.41;;;7.48;89.90
27643;BME280;15053;48.618;10.024;2023-04-01T02:01:24;92950.47;;;7.47;90.12
27643;BME280;15053;48.618;10.024;2023-04-01T02:03:54;92950.16;;;7.48;89.58
27643;BME280;15053;48.618;10.024;2023-04-01T02:06:23;92954.31;;;7.49;90.22
27643;BME280;15053;48.618;10.024;2023-04-01T02:09:06;92954.00;;;7.51;89.57
27643;BME280;15053;48.618;10.024;2023-04-01T02:11:38;92947.75;;;7.52;89.32
27643;BME280;15053;48.618;10.024;2023-04-01T02:14:17;92946.66;;;7.53;89.78
27643;BME280;15053;48.618;10.024;2023-04-01T02:19:22;92943.97;;;7.58;88.65
27643;BME280;15053;48.618;10.024;2023-04-01T02:21:55;92946.25;;;7.59;88.86
27643;BME280;15053;48.618;10.024;2023-04-01T02:24:25;92950.84;;;7.62;88.86
27643;BME280;15053;48.618;10.024;2023-04-01T02:26:53;92950.53;;;7.64;88.31
27643;BME280;15053;48.618;10.024;2023-04-01T02:29:22;92957.69;;;7.67;87.94
27643;BME280;15053;48.618;10.024;2023-04-01T02:31:49;92953.59;;;7.66;88.30
27643;BME280;15053;48.618;10.024;2023-04-01T02:34:16;92966.84;;;7.64;87.58
27643;BME280;15053;48.618;10.024;2023-04-01T02:36:43;92954.66;;;7.65;87.61
27643;BME280;15053;48.618;10.024;2023-04-01T02:39:11;92961.38;;;7.66;87.11
27643;BME280;15053;48.618;10.024;2023-04-01T02:41:42;92956.03;;;7.62;87.53
27643;BME280;15053;48.618;10.024;2023-04-01T02:44:11;92951.28;;;7.64;86.79
27643;BME280;15053;48.618;10.024;2023-04-01T02:46:37;92962.44;;;7.65;87.05
27643;BME280;15053;48.618;10.024;2023-04-01T02:49:05;92962.44;;;7.65;87.07
27643;BME280;15053;48.618;10.024;2023-04-01T02:51:32;92973.84;;;7.64;87.25
27643;BME280;15053;48.618;10.024;2023-04-01T02:53:58;92969.75;;;7.63;87.47
27643;BME280;15053;48.618;10.024;2023-04-01T02:56:25;92958.44;;;7.59;86.95
27643;BME280;15053;48.618;10.024;2023-04-01T02:58:53;92965.75;;;7.57;87.71
27643;BME280;15053;48.618;10.024;2023-04-01T03:01:20;92963.44;;;7.55;87.68
27643;BME280;15053;48.618;10.024;2023-04-01T03:03:47;92955.53;;;7.52;88.16
27643;BME280;15053;48.618;10.024;2023-04-01T03:06:15;92957.63;;;7.50;87.57
27643;BME280;15053;48.618;10.024;2023-04-01T03:08:43;92968.75;;;7.50;87.81
27643;BME280;15053;48.618;10.024;2023-04-01T03:11:10;92970.72;;;7.45;88.23
27643;BME280;15053;48.618;10.024;2023-04-01T03:13:37;92965.25;;;7.46;88.37
27643;BME280;15053;48.618;10.024;2023-04-01T03:16:04;92975.91;;;7.45;88.30
27643;BME280;15053;48.618;10.024;2023-04-01T03:18:31;92988.56;;;7.46;88.19
27643;BME280;15053;48.618;10.024;2023-04-01T03:21:12;92969.66;;;7.46;88.33
27643;BME280;15053;48.618;10.024;2023-04-01T03:23:38;92981.06;;;7.45;87.59
27643;BME280;15053;48.618;10.024;2023-04-01T03:26:05;92985.78;;;7.43;87.73
27643;BME280;15053;48.618;10.024;2023-04-01T03:28:31;92993.88;;;7.41;88.87
27643;BME280;15053;48.618;10.024;2023-04-01T03:30:58;92983.81;;;7.40;89.05
27643;BME280;15053;48.618;10.024;2023-04-01T03:33:24;92983.34;;;7.38;88.56
27643;BME280;15053;48.618;10.024;2023-04-01T03:35:51;92988.97;;;7.40;87.66
27643;BME280;15053;48.618;10.024;2023-04-01T03:38:18;92986.38;;;7.40;88.27
27643;BME280;15053;48.618;10.024;2023-04-01T03:40:45;92983.81;;;7.40;87.71
27643;BME280;15053;48.618;10.024;2023-04-01T03:43:11;92983.81;;;7.40;87.45
27643;BME280;15053;48.618;10.024;2023-04-01T03:45:50;92983.81;;;7.40;87.59
27643;BME280;15053;48.618;10.024;2023-04-01T03:48:17;92988.53;;;7.38;87.59
27643;BME280;15053;48.618;10.024;2023-04-01T03:50:44;92974.81;;;7.37;87.47
27643;BME280;15053;48.618;10.024;2023-04-01T03:53:11;92985.94;;;7.38;87.49
27643;BME280;15053;48.618;10.024;2023-04-01T03:55:40;92984.38;;;7.37;88.10
27643;BME280;15053;48.618;10.024;2023-04-01T03:58:07;92983.63;;;7.36;87.97
27643;BME280;15053;48.618;10.024;2023-04-01T04:00:34;92985.16;;;7.37;87.60
27643;BME280;15053;48.618;10.024;2023-04-01T04:03:02;92976.63;;;7.37;87.53
27643;BME280;15053;48.618;10.024;2023-04-01T04:05:32;92981.03;;;7.36;87.38
27643;BME280;15053;48.618;10.024;2023-04-01T04:07:59;92981.94;;;7.32;86.58
27643;BME280;15053;48.618;10.024;2023-04-01T04:10:26;92988.66;;;7.33;87.42
27643;BME280;15053;48.618;10.024;2023-04-01T04:12:52;92984.97;;;7.34;87.13
27643;BME280;15053;48.618;10.024;2023-04-01T04:15:22;92981.94;;;7.32;87.10
27643;BME280;15053;48.618;10.024;2023-04-01T04:17:48;92984.53;;;7.32;86.15
27643;BME280;15053;48.618;10.024;2023-04-01T04:20:15;92987.88;;;7.32;86.04
27643;BME280;15053;48.618;10.024;2023-04-01T04:22:41;92987.13;;;7.32;85.14
27643;BME280;15053;48.618;10.024;2023-04-01T04:25:08;92989.25;;;7.30;84.47
27643;BME280;15053;48.618;10.024;2023-04-01T04:27:36;92987.69;;;7.29;84.67
27643;BME280;15053;48.618;10.024;2023-04-01T04:30:07;92991.38;;;7.28;84.80
27643;BME280;15053;48.618;10.024;2023-04-01T04:32:35;92999.13;;;7.28;83.17
27643;BME280;15053;48.618;10.024;2023-04-01T04:35:02;92990.44;;;7.24;83.81
27643;BME280;15053;48.618;10.024;2023-04-01T04:37:29;92989.97;;;7.22;83.67
27643;BME280;15053;48.618;10.024;2023-04-01T04:39:56;92990.09;;;7.17;83.71
27643;BME280;15053;48.618;10.024;2023-04-01T04:42:22;92992.69;;;7.17;83.93
27643;BME280;15053;48.618;10.024;2023-04-01T04:44:53;92991.72;;;7.12;83.79
27643;BME280;15053;48.618;10.024;2023-04-01T04:47:20;92986.22;;;7.05;84.19
27643;BME280;15053;48.618;10.024;2023-04-01T04:49:47;92991.69;;;7.04;84.09
27643;BME280;15053;48.618;10.024;2023-04-01T04:52:13;92995.94;;;7.00;84.67
27643;BME280;15053;48.618;10.024;2023-04-01T04:54:40;92994.19;;;6.95;84.05
27643;BME280;15053;48.618;10.024;2023-04-01T04:57:06;92990.88;;;6.95;85.07
27643;BME280;15053;48.618;10.024;2023-04-01T04:59:39;92989.81;;;6.96;84.73
27643;BME280;15053;48.618;10.024;2023-04-01T05:02:12;92992.50;;;6.91;84.11
27643;BME280;15053;48.618;10.024;2023-04-01T05:04:39;93006.63;;;6.85;84.43
27643;BME280;15053;48.618;10.024;2023-04-01T05:07:08;92995.63;;;6.79;84.33
27643;BME280;15053;48.618;10.024;2023-04-01T05:09:34;92993.34;;;6.78;83.96
27643;BME280;15053;48.618;10.024;2023-04-01T05:12:02;92989.91;;;6.69;84.37
27643;BME280;15053;48.618;10.024;2023-04-01T05:14:42;93003.16;;;6.67;85.01
27643;BME280;15053;48.618;10.024;2023-04-01T05:17:10;93004.50;;;6.65;84.59
27643;BME280;15053;48.618;10.024;2023-04-01T05:19:38;93000.66;;;6.62;85.39
27643;BME280;15053;48.618;10.024;2023-04-01T05:22:06;93005.38;;;6.60;84.89
27643;BME280;15053;48.618;10.024;2023-04-01T05:24:32;92997.59;;;6.60;85.97
27643;BME280;15053;48.618;10.024;2023-04-01T05:26:59;92993.19;;;6.61;85.21
27643;BME280;15053;48.618;10.024;2023-04-01T05:29:27;92992.63;;;6.64;84.74
27643;BME280;15053;48.618;10.024;2023-04-01T05:32:01;92993.09;;;6.66;85.04
27643;BME280;15053;48.618;10.024;2023-04-01T05:34:28;92985.63;;;6.64;85.70
27643;BME280;15053;48.618;10.024;2023-04-01T05:36:54;92992.31;;;6.65;86.60
27643;BME280;15053;48.618;10.024;2023-04-01T05:39:21;92987.63;;;6.67;86.33
27643;BME280;15053;48.618;10.024;2023-04-01T05:41:47;92988.38;;;6.68;86.32
27643;BME280;15053;48.618;10.024;2023-04-01T05:44:14;92997.41;;;6.70;86.99
27643;BME280;15053;48.618;10.024;2023-04-01T05:46:40;92996.78;;;6.73;86.44
27643;BME280;15053;48.618;10.024;2023-04-01T05:49:14;92994.69;;;6.75;87.77
27643;BME280;15053;48.618;10.024;2023-04-01T05:51:41;92995.63;;;6.79;87.39
27643;BME280;15053;48.618;10.024;2023-04-01T05:54:08;92992.75;;;6.81;87.10
27643;BME280;15053;48.618;10.024;2023-04-01T05:56:35;92997.03;;;6.85;87.62
27643;BME280;15053;48.618;10.024;2023-04-01T05:59:02;92984.09;;;6.85;87.31
27643;BME280;15053;48.618;10.024;2023-04-01T06:01:29;92996.91;;;6.90;88.03
27643;BME280;15053;48.618;10.024;2023-04-01T06:03:55;92999.69;;;6.94;87.94
27643;BME280;15053;48.618;10.024;2023-04-01T06:06:27;92988.75;;;6.97;87.86
27643;BME280;15053;48.618;10.024;2023-04-01T06:09:12;92986.03;;;7.02;87.67
27643;BME280;15053;48.618;10.024;2023-04-01T06:15:13;92986.28;;;7.14;87.69
27643;BME280;15053;48.618;10.024;2023-04-01T06:20:25;92987.53;;;7.25;89.12
27643;BME280;15053;48.618;10.024;2023-04-01T06:23:10;92991.69;;;7.35;88.50
27643;BME280;15053;48.618;10.024;2023-04-01T06:28:44;92988.72;;;7.50;88.19
27643;BME280;15053;48.618;10.024;2023-04-01T06:31:24;92993.19;;;7.58;87.71
27643;BME280;15053;48.618;10.024;2023-04-01T06:39:45;92984.56;;;7.71;86.94
27643;BME280;15053;48.618;10.024;2023-04-01T06:45:22;92986.13;;;7.89;85.87
27643;BME280;15053;48.618;10.024;2023-04-01T06:48:36;92984.00;;;8.00;85.46
27643;BME280;15053;48.618;10.024;2023-04-01T06:51:37;92976.56;;;8.07;84.55
27643;BME280;15053;48.618;10.024;2023-04-01T06:54:48;92984.06;;;8.17;83.26
27643;BME280;15053;48.618;10.024;2023-04-01T06:57:39;92981.03;;;8.23;82.76
27643;BME280;15053;48.618;10.024;2023-04-01T07:00:21;92975.72;;;8.28;82.26
27643;BME280;15053;48.618;10.024;2023-04-01T07:02:54;92973.44;;;8.36;81.95
27643;BME280;15053;48.618;10.024;2023-04-01T07:05:30;92975.88;;;8.41;82.55
27643;BME280;15053;48.618;10.024;2023-04-01T07:08:02;92969.34;;;8.43;81.55
27643;BME280;15053;48.618;10.024;2023-04-01T07:10:41;92982.59;;;8.42;80.95
27643;BME280;15053;48.618;10.024;2023-04-01T07:13:36;92974.03;;;8.41;80.31
27643;BME280;15053;48.618;10.024;2023-04-01T07:16:17;92973.16;;;8.46;79.75
27643;BME280;15053;48.618;10.024;2023-04-01T07:21:56;92957.28;;;8.56;79.77
27643;BME280;15053;48.618;10.024;2023-04-01T07:24:41;92965.97;;;8.51;79.35
27643;BME280;15053;48.618;10.024;2023-04-01T07:27:12;92959.56;;;8.49;79.64
27643;BME280;15053;48.618;10.024;2023-04-01T07:29:41;92972.38;;;8.54;80.29
27643;BME280;15053;48.618;10.024;2023-04-01T07:32:48;92966.13;;;8.55;79.41
27643;BME280;15053;48.618;10.024;2023-04-01T07:35:27;92953.47;;;8.53;79.35
27643;BME280;15053;48.618;10.024;2023-04-01T07:40:47;92965.97;;;8.51;80.14
27643;BME280;15053;48.618;10.024;2023-04-01T07:52:00;92965.06;;;8.47;80.76
27643;BME280;15053;48.618;10.024;2023-04-01T07:54:46;92963.69;;;8.50;80.80
27643;BME280;15053;48.618;10.024;2023-04-01T07:57:23;92961.84;;;8.50;80.65
27643;BME280;15053;48.618;10.024;2023-04-01T08:18:00;92955.72;;;8.46;82.58
27643;BME280;15053;48.618;10.024;2023-04-01T08:23:16;92954.84;;;8.51;82.94
27643;BME280;15053;48.618;10.024;2023-04-01T08:25:52;92956.22;;;8.48;83.27
27643;BME280;15053;48.618;10.024;2023-04-01T08:28:51;92955.72;;;8.55;83.12
27643;BME280;15053;48.618;10.024;2023-04-01T08:31:30;92962.00;;;8.54;83.45
27643;BME280;15053;48.618;10.024;2023-04-01T08:34:00;92961.41;;;8.57;83.61
27643;BME280;15053;48.618;10.024;2023-04-01T08:36:31;92967.81;;;8.59;83.49
27643;BME280;15053;48.618;10.024;2023-04-01T08:39:18;92959.88;;;8.56;83.36
27643;BME280;15053;48.618;10.024;2023-04-01T08:45:09;92959.25;;;8.59;84.37
27643;BME280;15053;48.618;10.024;2023-04-01T08:51:02;92959.41;;;8.54;84.61
27643;BME280;15053;48.618;10.024;2023-04-01T08:56:39;92960.03;;;8.51;85.31
27643;BME280;15053;48.618;10.024;2023-04-01T08:59:15;92956.34;;;8.52;85.18
27643;BME280;15053;48.618;10.024;2023-04-01T09:01:55;92953.31;;;8.50;85.24
27643;BME280;15053;48.618;10.024;2023-04-01T09:05:01;92956.66;;;8.50;85.26
27643;BME280;15053;48.618;10.024;2023-04-01T09:10:52;92975.00;;;8.54;85.43
27643;BME280;15053;48.618;10.024;2023-04-01T09:16:35;92967.66;;;8.47;86.15
27643;BME280;15053;48.618;10.024;2023-04-01T09:21:53;92970.25;;;8.47;86.55
27643;BME280;15053;48.618;10.024;2023-04-01T09:24:40;92974.38;;;8.48;86.76
27643;BME280;15053;48.618;10.024;2023-04-01T09:27:22;92969.47;;;8.47;86.96
27643;BME280;15053;48.618;10.024;2023-04-01T09:41:32;92976.03;;;8.44;87.90
27643;BME280;15053;48.618;10.024;2023-04-01T09:44:31;92972.84;;;8.47;87.61
27643;BME280;15053;48.618;10.024;2023-04-01T09:52:38;92985.50;;;8.40;88.00
27643;BME280;15053;48.618;10.024;2023-04-01T09:55:38;92989.16;;;8.30;87.36
27643;BME280;15053;48.618;10.024;2023-04-01T10:07:49;93000.25;;;8.22;88.41
27643;BME280;15053;48.618;10.024;2023-04-01T10:13:00;92994.41;;;8.08;89.02
27643;BME280;15053;48.618;10.024;2023-04-01T10:18:46;92989.22;;;8.08;89.30
27643;BME280;15053;48.618;10.024;2023-04-01T10:27:14;92990.44;;;8.11;89.98
27643;BME280;15053;48.618;10.024;2023-04-01T10:30:18;92992.28;;;8.10;90.14
27643;BME280;15053;48.618;10.024;2023-04-01T10:41:28;93000.84;;;8.19;89.90
27643;BME280;15053;48.618;10.024;2023-04-01T10:47:44;93005.13;;;8.15;90.49
27643;BME280;15053;48.618;10.024;2023-04-01T10:50:23;92995.19;;;8.17;90.65
27643;BME280;15053;48.618;10.024;2023-04-01T10:53:29;92994.88;;;8.19;90.63
27643;BME280;15053;48.618;10.024;2023-04-01T10:56:36;92981.19;;;8.18;90.35
27643;BME280;15053;48.618;10.024;2023-04-01T11:06:19;92992.16;;;8.24;90.97
27643;BME280;15053;48.618;10.024;2023-04-01T11:20:23;93002.13;;;8.39;92.05
27643;BME280;15053;48.618;10.024;2023-04-01T11:23:19;92999.84;;;8.38;91.71
27643;BME280;15053;48.618;10.024;2023-04-01T11:26:01;92992.34;;;8.36;91.85
27643;BME280;15053;48.618;10.024;2023-04-01T11:29:18;93009.91;;;8.39;91.21
27643;BME280;15053;48.618;10.024;2023-04-01T11:32:02;92995.56;;;8.42;91.31
27643;BME280;15053;48.618;10.024;2023-04-01T11:34:46;92995.72;;;8.45;91.29
27643;BME280;15053;48.618;10.024;2023-04-01T11:41:05;93014.06;;;8.49;91.40
27643;BME280;15053;48.618;10.024;2023-04-01T12:01:09;92999.69;;;8.60;89.31
27643;BME280;15053;48.618;10.024;2023-04-01T12:06:49;93016.03;;;8.60;88.68
27643;BME280;15053;48.618;10.024;2023-04-01T12:23:41;93018.94;;;8.67;89.02
27643;BME280;15053;48.618;10.024;2023-04-01T12:26:23;93011.28;;;8.71;89.13
27643;BME280;15053;48.618;10.024;2023-04-01T12:32:01;93019.41;;;8.78;88.95
27643;BME280;15053;48.618;10.024;2023-04-01T12:34:58;93018.94;;;8.84;88.78
27643;BME280;15053;48.618;10.024;2023-04-01T12:40:23;93029.03;;;8.86;86.43
27643;BME280;15053;48.618;10.024;2023-04-01T12:43:02;93038.66;;;8.85;86.17
27643;BME280;15053;48.618;10.024;2023-04-01T12:45:45;93024.91;;;8.85;85.54
27643;BME280;15053;48.618;10.024;2023-04-01T12:51:29;93031.19;;;8.84;83.50
27643;BME280;15053;48.618;10.024;2023-04-01T12:54:27;93031.03;;;8.89;84.88
27643;BME280;15053;48.618;10.024;2023-04-01T13:03:04;93026.44;;;8.95;85.53
27643;BME280;15053;48.618;10.024;2023-04-01T13:06:11;93020.91;;;8.96;86.41
27643;BME280;15053;48.618;10.024;2023-04-01T13:09:11;93028.25;;;8.94;86.72
27643;BME280;15053;48.618;10.024;2023-04-01T13:15:09;93033.16;;;8.87;85.96
27643;BME280;15053;48.618;10.024;2023-04-01T13:25:36;93034.38;;;8.81;86.52
27643;BME280;15053;48.618;10.024;2023-04-01T13:28:24;93041.41;;;8.80;87.27
27643;BME280;15053;48.618;10.024;2023-04-01T13:31:02;93043.22;;;8.80;87.66
27643;BME280;15053;48.618;10.024;2023-04-01T13:33:54;93054.06;;;8.82;87.76
27643;BME280;15053;48.618;10.024;2023-04-01T13:36:36;93035.88;;;8.82;87.30
27643;BME280;15053;48.618;10.024;2023-04-01T13:39:22;93038.97;;;8.84;87.33
27643;BME280;15053;48.618;10.024;2023-04-01T13:45:14;93033.63;;;8.89;86.85
27643;BME280;15053;48.618;10.024;2023-04-01T13:47:50;93042.78;;;8.95;87.19
27643;BME280;15053;48.618;10.024;2023-04-01T13:50:35;93050.88;;;9.02;87.08
27643;BME280;15053;48.618;10.024;2023-04-01T13:55:53;93040.94;;;9.04;86.25
27643;BME280;15053;48.618;10.024;2023-04-01T14:11:57;93063.69;;;9.07;83.29
27643;BME280;15053;48.618;10.024;2023-04-01T14:20:39;93053.00;;;9.09;84.26
27643;BME280;15053;48.618;10.024;2023-04-01T14:34:31;93064.13;;;9.18;81.63
27643;BME280;15053;48.618;10.024;2023-04-01T14:37:32;93061.84;;;9.16;79.99
27643;BME280;15053;48.618;10.024;2023-04-01T14:40:22;93072.69;;;9.18;79.60
27643;BME280;15053;48.618;10.024;2023-04-01T14:43:03;93069.81;;;9.20;79.46
27643;BME280;15053;48.618;10.024;2023-04-01T14:48:15;93071.94;;;9.26;80.03
27643;BME280;15053;48.618;10.024;2023-04-01T14:50:49;93094.53;;;9.34;79.48
27643;BME280;15053;48.618;10.024;2023-04-01T14:55:51;93087.22;;;9.36;79.09
27643;BME280;15053;48.618;10.024;2023-04-01T14:58:19;93082.31;;;9.35;77.46
27643;BME280;15053;48.618;10.024;2023-04-01T15:03:38;93073.91;;;9.29;76.51
27643;BME280;15053;48.618;10.024;2023-04-01T15:11:58;93077.44;;;9.25;75.42
27643;BME280;15053;48.618;10.024;2023-04-01T15:14:52;93081.25;;;9.27;75.61
27643;BME280;15053;48.618;10.024;2023-04-01T15:17:42;93083.84;;;9.27;76.37
27643;BME280;15053;48.618;10.024;2023-04-01T15:23:34;93078.94;;;9.34;75.70
27643;BME280;15053;48.618;10.024;2023-04-01T15:26:16;93088.72;;;9.37;75.73
27643;BME280;15053;48.618;10.024;2023-04-01T15:31:38;93080.78;;;9.42;76.04
27643;BME280;15053;48.618;10.024;2023-04-01T15:51:41;93099.44;;;9.36;76.17
27643;BME280;15053;48.618;10.024;2023-04-01T15:54:46;93105.53;;;9.31;75.41
27643;BME280;15053;48.618;10.024;2023-04-01T15:57:14;93110.28;;;9.29;75.63
27643;BME280;15053;48.618;10.024;2023-04-01T16:02:34;93110.44;;;9.24;75.24
27643;BME280;15053;48.618;10.024;2023-04-01T16:05:22;93118.84;;;9.21;75.09
27643;BME280;15053;48.618;10.024;2023-04-01T16:19:43;93128.00;;;9.10;75.92
27643;BME280;15053;48.618;10.024;2023-04-01T16:22:27;93119.75;;;9.08;76.85
27643;BME280;15053;48.618;10.024;2023-04-01T16:25:28;93121.91;;;9.06;77.01
27643;BME280;15053;48.618;10.024;2023-04-01T16:28:19;93127.09;;;9.06;76.69
27643;BME280;15053;48.618;10.024;2023-04-01T16:31:06;93135.50;;;9.03;76.66
27643;BME280;15053;48.618;10.024;2023-04-01T16:33:52;93128.00;;;9.02;77.37
27643;BME280;15053;48.618;10.024;2023-04-01T16:36:28;93129.97;;;8.96;77.61
27643;BME280;15053;48.618;10.024;2023-04-01T16:45:15;93146.31;;;8.97;77.81
27643;BME280;15053;48.618;10.024;2023-04-01T16:50:39;93139.44;;;8.92;78.53
27643;BME280;15053;48.618;10.024;2023-04-01T16:53:17;93157.47;;;8.88;78.65
27643;BME280;15053;48.618;10.024;2023-04-01T16:58:39;93151.19;;;8.81;79.87
27643;BME280;15053;48.618;10.024;2023-04-01T17:01:13;93164.78;;;8.78;80.30
27643;BME280;15053;48.618;10.024;2023-04-01T17:03:45;93171.34;;;8.75;81.00
27643;BME280;15053;48.618;10.024;2023-04-01T17:12:42;93163.34;;;8.63;82.78
27643;BME280;15053;48.618;10.024;2023-04-01T17:14:54;93169.44;;;8.59;82.90
27643;BME280;15053;48.618;10.024;2023-04-01T17:17:28;93167.00;;;8.54;83.36
27643;BME280;15053;48.618;10.024;2023-04-01T17:20:12;93174.28;;;8.52;83.95
27643;BME280;15053;48.618;10.024;2023-04-01T17:22:54;93168.19;;;8.48;83.61
27643;BME280;15053;48.618;10.024;2023-04-01T17:25:37;93166.97;;;8.45;84.79
27643;BME280;15053;48.618;10.024;2023-04-01T17:28:26;93163.59;;;8.45;84.95
27643;BME280;15053;48.618;10.024;2023-04-01T17:31:12;93174.28;;;8.43;84.76
27643;BME280;15053;48.618;10.024;2023-04-01T17:34:04;93179.16;;;8.45;85.11
27643;BME280;15053;48.618;10.024;2023-04-01T17:42:22;93191.91;;;8.32;86.29
27643;BME280;15053;48.618;10.024;2023-04-01T17:45:04;93188.41;;;8.28;86.79
27643;BME280;15053;48.618;10.024;2023-04-01T17:47:41;93181.94;;;8.26;86.85
27643;BME280;15053;48.618;10.024;2023-04-01T17:50:47;93188.97;;;8.25;86.43
27643;BME280;15053;48.618;10.024;2023-04-01T17:58:59;93196.41;;;8.18;86.84
27643;BME280;15053;48.618;10.024;2023-04-01T18:01:52;93204.19;;;8.18;86.94
27643;BME280;15053;48.618;10.024;2023-04-01T18:04:46;93206.59;;;8.15;86.68
27643;BME280;15053;48.618;10.024;2023-04-01T18:07:40;93211.03;;;8.14;87.17
27643;BME280;15053;48.618;10.024;2023-04-01T18:10:23;93211.63;;;8.11;86.77
27643;BME280;15053;48.618;10.024;2023-04-01T18:15:52;93224.28;;;8.13;86.99
27643;BME280;15053;48.618;10.024;2023-04-01T18:18:54;93219.38;;;8.11;87.41
27643;BME280;15053;48.618;10.024;2023-04-01T18:21:43;93221.97;;;8.11;87.66
27643;BME280;15053;48.618;10.024;2023-04-01T18:24:33;93224.13;;;8.09;87.16
27643;BME280;15053;48.618;10.024;2023-04-01T18:27:07;93221.97;;;8.11;86.95
27643;BME280;15053;48.618;10.024;2023-04-01T18:29:48;93224.88;;;8.10;87.11
27643;BME280;15053;48.618;10.024;2023-04-01T18:32:27;93231.59;;;8.11;87.65
27643;BME280;15053;48.618;10.024;2023-04-01T18:35:03;93230.06;;;8.10;87.78
27643;BME280;15053;48.618;10.024;2023-04-01T18:37:47;93234.47;;;8.09;87.98
27643;BME280;15053;48.618;10.024;2023-04-01T18:40:24;93240.44;;;8.10;87.28
27643;BME280;15053;48.618;10.024;2023-04-01T18:43:08;93241.19;;;8.10;87.78
27643;BME280;15053;48.618;10.024;2023-04-01T18:45:43;93234.47;;;8.09;87.58
27643;BME280;15053;48.618;10.024;2023-04-01T18:51:36;93233.91;;;8.12;87.67
27643;BME280;15053;48.618;10.024;2023-04-01T18:54:11;93241.38;;;8.14;88.27
27643;BME280;15053;48.618;10.024;2023-04-01T18:56:41;93235.91;;;8.15;88.18
27643;BME280;15053;48.618;10.024;2023-04-01T18:59:34;93239.13;;;8.21;88.00
27643;BME280;15053;48.618;10.024;2023-04-01T19:02:27;93248.44;;;8.22;88.07
27643;BME280;15053;48.618;10.024;2023-04-01T19:05:18;93248.16;;;8.23;87.85
27643;BME280;15053;48.618;10.024;2023-04-01T19:07:52;93248.44;;;8.22;87.79
27643;BME280;15053;48.618;10.024;2023-04-01T19:10:36;93255.16;;;8.23;87.89
27643;BME280;15053;48.618;10.024;2023-04-01T19:13:22;93252.09;;;8.21;87.92
27643;BME280;15053;48.618;10.024;2023-04-01T19:16:15;93263.53;;;8.20;87.59
27643;BME280;15053;48.618;10.024;2023-04-01T19:21:33;93257.09;;;8.17;87.57
27643;BME280;15053;48.618;10.024;2023-04-01T19:24:50;93260.28;;;8.14;87.63
27643;BME280;15053;48.618;10.024;2023-04-01T19:27:38;93269.63;;;8.15;87.22
27643;BME280;15053;48.618;10.024;2023-04-01T19:36:32;93295.06;;;8.13;87.23
27643;BME280;15053;48.618;10.024;2023-04-01T19:39:09;93306.50;;;8.12;87.72
27643;BME280;15053;48.618;10.024;2023-04-01T19:41:58;93315.91;;;8.08;87.32
27643;BME280;15053;48.618;10.024;2023-04-01T19:44:36;93308.44;;;8.07;88.33
27643;BME280;15053;48.618;10.024;2023-04-01T19:52:49;93312.91;;;7.93;89.36